パース の空港の天気 - METARとTAF

パース空港 ( YPPH / PER ) - オーストラリア 西オーストラリア州パース
飛行場実況気象(Metar)
観測時間10/16 15:30 AWST (10/16 07:30 UTC)
風向・風速西南西 8m/s
視程10km以上
天気現象
なし
気温21℃
湿度35%
気圧1022hPa
METARYPPH 160730Z 24016KT CAVOK 21/05 Q1022 NOSIG
過去の天気等 Google飛行場航空写真 Wunderground天気予報

過去48時間のMETAR

飛行場予報(TAF)
発表時間: 10/16 12:49 AWST (10/16 04:49 UTC)
予報対象時間: 16日14時 AWST ~ 17日20時 AWST
風向・風速南西 6m/s
視程10km以上
なし
17日0時 AWST から
風向・風速南南東 4m/s
視程10km以上
なし
17日11時 AWST から
風向・風速南南西 6m/s
視程10km以上
なし
TAF YPPH 160449Z 1606/1712 22012KT CAVOK
FM161600 15008KT CAVOK
FM170300 21012KT CAVOK